Time;durP1;ratioP1;P1;durP2;ratioP2;P2;SDS_P1;SDS_P2;PMS_P1;PMS_P2;Temp;Humidity;BMP_temperature;BMP_pressure;BME280_temperature;BME280_humidity;BME280_pressure;Samples;Min_cycle;Max_cycle;Signal;HPM_P1;HPM_P2
2022/12/20 00:00:41;;;;;;;;;;;;;;;;;;1881618;28;7006;-62
2022/12/20 00:01:39;;;;;;;;;;;;;;;;;;1882147;28;7113;-63
2022/12/20 00:02:36;;;;;;;;;;;;;;;;;;1881846;28;7026;-62
2022/12/20 00:03:33;;;;;;;;;;;;;;;;;;1881830;28;7124;-63
2022/12/20 00:04:31;;;;;;;;;;;;;;;;;;1882318;28;7096;-62
2022/12/20 00:05:28;;;;;;;;;;;;;;;;;;1881956;28;7113;-63
2022/12/20 00:06:26;;;;;;;;;;;;;;;;;;1882086;28;7042;-63
2022/12/20 00:07:23;;;;;;;;;;;;;;;;;;1882806;28;7034;-62
2022/12/20 00:08:21;;;;;;;;;;;;;;;;;;1882699;28;7025;-63
2022/12/20 00:09:18;;;;;;;;;;;;;;;;;;1880624;28;7116;-64
2022/12/20 00:10:15;;;;;;;;;;;;;;;;;;1882288;28;7137;-63
2022/12/20 00:11:13;;;;;;;;;;;;;;;;;;1882394;28;7039;-61
2022/12/20 00:12:10;;;;;;;;;;;;;;;;;;1882452;28;8120;-63
2022/12/20 00:13:08;;;;;;;;;;;;;;;;;;1882276;28;7215;-62
2022/12/20 00:14:06;;;;;;;;;;;;;;;;;;1882032;28;8048;-62
2022/12/20 00:15:04;;;;;;;;;;;;;;;;;;1882067;28;8004;-61
2022/12/20 00:16:15;;;;;;;;;;;;;;;;;;1882290;28;7196;-62
2022/12/20 00:17:12;;;;;;;;;;;;;;;;;;1881196;28;7331;-63
2022/12/20 00:18:10;;;;;;;;;;;;;;;;;;1882289;28;7006;-64
2022/12/20 00:19:09;;;;;;;;;;;;;;;;;;1881752;28;7101;-61
2022/12/20 00:20:07;;;;;;;;;;;;;;;;;;1882569;28;7038;-62
2022/12/20 00:21:05;;;;;;;;;;;;;;;;;;1881988;28;7010;-61
2022/12/20 00:22:03;;;;;;;;;;;;;;;;;;1881577;28;7010;-62
2022/12/20 00:23:00;;;;;;;;;;;;;;;;;;1881827;28;7096;-63
2022/12/20 00:23:58;;;;;;;;;;;;;;;;;;1882160;28;7042;-63
2022/12/20 00:24:55;;;;;;;;;;;;;;;;;;1882072;28;7117;-63
2022/12/20 00:25:58;;;;;;;;;;;;;;;;;;1881884;28;7313;-63
2022/12/20 00:26:56;;;;;;;;;;;;;;;;;;1880467;28;7093;-63
2022/12/20 00:27:53;;;;;;;;;;;;;;;;;;1882015;28;7089;-63
2022/12/20 00:28:51;;;;;;;;;;;;;;;;;;1880747;28;7010;-62
2022/12/20 00:29:48;;;;;;;;;;;;;;;;;;1882108;28;7092;-62
2022/12/20 00:30:45;;;;;;;;;;;;;;;;;;1882255;28;7066;-63
2022/12/20 00:31:43;;;;;;;;;;;;;;;;;;1881935;28;7042;-64
2022/12/20 00:32:41;;;;;;;;;;;;;;;;;;1882114;28;7010;-64
2022/12/20 00:33:39;;;;;;;;;;;;;;;;;;1882238;28;7005;-61
2022/12/20 00:34:37;;;;;;;;;;;;;;;;;;1882591;28;7042;-63
2022/12/20 00:35:34;;;;;;;;;;;;;;;;;;1882542;28;7030;-63
2022/12/20 00:36:32;;;;;;;;;;;;;;;;;;1883749;28;7293;-63
2022/12/20 00:37:29;;;;;;;;;;;;;;;;;;1883537;28;7125;-63
2022/12/20 00:38:27;;;;;;;;;;;;;;;;;;1883237;28;8047;-64
2022/12/20 00:39:24;;;;;;;;;;;;;;;;;;1883500;28;7121;-63
2022/12/20 00:40:21;;;;;;;;;;;;;;;;;;1882905;28;7022;-61
2022/12/20 00:41:20;;;;;;;;;;;;;;;;;;1883574;28;7317;-63
2022/12/20 00:42:17;;;;;;;;;;;;;;;;;;1883239;28;7006;-62
2022/12/20 00:43:15;;;;;;;;;;;;;;;;;;1883593;28;7097;-62
2022/12/20 00:44:12;;;;;;;;;;;;;;;;;;1882204;28;7201;-63
2022/12/20 00:45:09;;;;;;;;;;;;;;;;;;1882092;28;7010;-63
2022/12/20 00:46:08;;;;;;;;;;;;;;;;;;1883526;28;7006;-62
2022/12/20 00:47:05;;;;;;;;;;;;;;;;;;1883417;28;7006;-61
2022/12/20 00:48:03;;;;;;;;;;;;;;;;;;1883771;28;7152;-63
2022/12/20 00:49:00;;;;;;;;;;;;;;;;;;1883980;28;7093;-63
2022/12/20 00:49:58;;;;;;;;;;;;;;;;;;1882994;28;8022;-62
2022/12/20 00:50:59;;;;;;;;;;;;;;;;;;1875249;28;7827;-64
2022/12/20 00:51:57;;;;;;;;;;;;;;;;;;1875323;28;7009;-63
2022/12/20 00:52:54;;;;;;;;;;;;;;;;;;1882074;28;7096;-62
2022/12/20 00:53:52;;;;;;;;;;;;;;;;;;1883509;28;7010;-61
2022/12/20 00:54:49;;;;;;;;;;;;;;;;;;1877013;28;7010;-62
2022/12/20 00:55:47;;;;;;;;;;;;;;;;;;1873685;28;7823;-63
2022/12/20 00:56:44;;;;;;;;;;;;;;;;;;1871279;28;7123;-63
2022/12/20 00:57:42;;;;;;;;;;;;;;;;;;1868814;29;7322;-64
2022/12/20 00:58:40;;;;;;;;;;;;;;;;;;1868701;29;7093;-64
2022/12/20 00:59:38;;;;;;;;;;;;;;;;;;1874152;28;7006;-63
2022/12/20 01:00:36;;;;;;;;;;;;;;;;;;1875949;28;7043;-63
2022/12/20 01:01:33;;;;;;;;;;;;;;;;;;1869494;28;7143;-64
2022/12/20 01:02:31;;;;;;;;;;;;;;;;;;1870579;28;8084;-63
2022/12/20 01:03:29;;;;;;;;;;;;;;;;;;1876502;28;7114;-62
2022/12/20 01:04:27;;;;;;;;;;;;;;;;;;1871723;28;7017;-62
2022/12/20 01:05:24;;;;;;;;;;;;;;;;;;1875934;28;7044;-62
2022/12/20 01:06:23;;;;;;;;;;;;;;;;;;1876079;28;7006;-64
2022/12/20 01:07:22;;;;;;;;;;;;;;;;;;1872062;28;7046;-63
2022/12/20 01:08:20;;;;;;;;;;;;;;;;;;1875599;28;7053;-63
2022/12/20 01:09:17;;;;;;;;;;;;;;;;;;1876479;28;7009;-63
2022/12/20 01:10:15;;;;;;;;;;;;;;;;;;1876522;28;7166;-63
2022/12/20 01:11:14;;;;;;;;;;;;;;;;;;1872427;28;7067;-61
2022/12/20 01:12:11;;;;;;;;;;;;;;;;;;1876019;28;7092;-64
2022/12/20 01:13:09;;;;;;;;;;;;;;;;;;1872745;28;7093;-64
2022/12/20 01:14:12;;;;;;;;;;;;;;;;;;1869319;28;7090;-63
2022/12/20 01:15:10;;;;;;;;;;;;;;;;;;1875909;28;7112;-61
2022/12/20 01:16:13;;;;;;;;;;;;;;;;;;1875068;28;7172;-62
2022/12/20 01:17:11;;;;;;;;;;;;;;;;;;1875989;28;7116;-63
2022/12/20 01:18:08;;;;;;;;;;;;;;;;;;1867980;29;8040;-62
2022/12/20 01:19:08;;;;;;;;;;;;;;;;;;1868534;28;7039;-63
2022/12/20 01:20:06;;;;;;;;;;;;;;;;;;1873551;28;7074;-63
2022/12/20 01:21:05;;;;;;;;;;;;;;;;;;1874377;28;7062;-61
2022/12/20 01:22:02;;;;;;;;;;;;;;;;;;1872247;28;7042;-63
2022/12/20 01:23:00;;;;;;;;;;;;;;;;;;1869009;29;7156;-63
2022/12/20 01:23:57;;;;;;;;;;;;;;;;;;1867275;29;7010;-61
2022/12/20 01:24:55;;;;;;;;;;;;;;;;;;1873873;28;7010;-62
2022/12/20 01:25:52;;;;;;;;;;;;;;;;;;1870582;28;7022;-64
2022/12/20 01:26:49;;;;;;;;;;;;;;;;;;1868741;28;7093;-63
2022/12/20 01:27:47;;;;;;;;;;;;;;;;;;1869574;28;7006;-63
2022/12/20 01:28:45;;;;;;;;;;;;;;;;;;1868766;28;7006;-62
2022/12/20 01:29:43;;;;;;;;;;;;;;;;;;1867742;28;7014;-62
2022/12/20 01:30:40;;;;;;;;;;;;;;;;;;1871649;28;7034;-62
2022/12/20 01:31:39;;;;;;;;;;;;;;;;;;1874492;28;7058;-61
2022/12/20 01:32:36;;;;;;;;;;;;;;;;;;1868839;28;7446;-63
2022/12/20 01:33:34;;;;;;;;;;;;;;;;;;1869550;28;7026;-62
2022/12/20 01:34:32;;;;;;;;;;;;;;;;;;1867257;29;7006;-63
2022/12/20 01:35:29;;;;;;;;;;;;;;;;;;1867268;29;7274;-60
2022/12/20 01:36:28;;;;;;;;;;;;;;;;;;1868710;28;8028;-64
2022/12/20 01:37:25;;;;;;;;;;;;;;;;;;1868921;29;7002;-62
2022/12/20 01:38:23;;;;;;;;;;;;;;;;;;1874304;28;7093;-61
2022/12/20 01:39:20;;;;;;;;;;;;;;;;;;1874934;28;7020;-63
2022/12/20 01:40:18;;;;;;;;;;;;;;;;;;1868253;29;7043;-61
2022/12/20 01:41:19;;;;;;;;;;;;;;;;;;1868405;29;7006;-63
2022/12/20 01:42:16;;;;;;;;;;;;;;;;;;1872158;28;7363;-62
2022/12/20 01:43:16;;;;;;;;;;;;;;;;;;1872145;28;7313;-61
2022/12/20 01:44:16;;;;;;;;;;;;;;;;;;1868045;29;7006;-63
2022/12/20 01:45:22;;;;;;;;;;;;;;;;;;1867855;29;7010;-63
2022/12/20 01:46:21;;;;;;;;;;;;;;;;;;1869959;28;7014;-62
2022/12/20 01:47:19;;;;;;;;;;;;;;;;;;1867036;29;7025;-62
2022/12/20 01:48:25;;;;;;;;;;;;;;;;;;1869267;28;7021;-62
2022/12/20 01:49:29;;;;;;;;;;;;;;;;;;1871185;28;7010;-62
2022/12/20 01:50:27;;;;;;;;;;;;;;;;;;1872148;28;7054;-64
2022/12/20 01:51:28;;;;;;;;;;;;;;;;;;1875572;28;7006;-61
2022/12/20 01:52:31;;;;;;;;;;;;;;;;;;1871088;28;7010;-63
2022/12/20 01:53:28;;;;;;;;;;;;;;;;;;1868792;29;7089;-62
2022/12/20 01:54:32;;;;;;;;;;;;;;;;;;1868752;29;7018;-63
2022/12/20 01:55:32;;;;;;;;;;;;;;;;;;1875566;28;8251;-63
2022/12/20 01:56:29;;;;;;;;;;;;;;;;;;1874380;28;7090;-62
2022/12/20 01:57:45;;;;;;;;;;;;;;;;;;1874526;28;7042;-64
2022/12/20 01:58:45;;;;;;;;;;;;;;;;;;1875824;28;7006;-61
2022/12/20 01:59:46;;;;;;;;;;;;;;;;;;1871648;28;7005;-63
2022/12/20 02:00:43;;;;;;;;;;;;;;;;;;1874129;28;7006;-62
2022/12/20 02:01:42;;;;;;;;;;;;;;;;;;1876060;28;7100;-62
2022/12/20 02:02:40;;;;;;;;;;;;;;;;;;1875440;28;7010;-62
2022/12/20 02:03:39;;;;;;;;;;;;;;;;;;1867735;28;7078;-64
2022/12/20 02:04:37;;;;;;;;;;;;;;;;;;1872796;28;7009;-64
2022/12/20 02:05:39;;;;;;;;;;;;;;;;;;1870715;28;7010;-62
2022/12/20 02:06:37;;;;;;;;;;;;;;;;;;1875830;28;8085;-63
2022/12/20 02:07:37;;;;;;;;;;;;;;;;;;1868247;28;7096;-63
2022/12/20 02:08:34;;;;;;;;;;;;;;;;;;1870790;28;8088;-63
2022/12/20 02:09:33;;;;;;;;;;;;;;;;;;1875466;28;7014;-64
2022/12/20 02:10:49;;;;;;;;;;;;;;;;;;1875460;28;7042;-62
2022/12/20 02:12:05;;;;;;;;;;;;;;;;;;1874207;28;7025;-62
2022/12/20 02:13:11;;;;;;;;;;;;;;;;;;1870787;28;7097;-64
2022/12/20 02:14:10;;;;;;;;;;;;;;;;;;1876388;28;7201;-62
2022/12/20 02:15:28;;;;;;;;;;;;;;;;;;1880750;28;7126;-62
2022/12/20 02:16:28;;;;;;;;;;;;;;;;;;1873024;28;7092;-62
2022/12/20 02:17:42;;;;;;;;;;;;;;;;;;1870721;28;7014;-63
2022/12/20 02:18:51;;;;;;;;;;;;;;;;;;1869812;28;7215;-62
2022/12/20 02:19:54;;;;;;;;;;;;;;;;;;1875633;28;7014;-61
2022/12/20 02:20:52;;;;;;;;;;;;;;;;;;1873502;28;8032;-62
2022/12/20 02:22:13;;;;;;;;;;;;;;;;;;1868275;29;7325;-62
2022/12/20 02:23:28;;;;;;;;;;;;;;;;;;1874830;28;7026;-62
2022/12/20 02:24:41;;;;;;;;;;;;;;;;;;1875497;28;7010;-63
2022/12/20 02:25:50;;;;;;;;;;;;;;;;;;1871403;28;7332;-62
2022/12/20 02:26:48;;;;;;;;;;;;;;;;;;1869597;28;7010;-64
2022/12/20 02:27:54;;;;;;;;;;;;;;;;;;1872815;28;7051;-62
2022/12/20 02:28:51;;;;;;;;;;;;;;;;;;1868435;28;7097;-61
2022/12/20 02:30:05;;;;;;;;;;;;;;;;;;1870609;28;8129;-62
2022/12/20 02:31:06;;;;;;;;;;;;;;;;;;1867991;29;7097;-62
2022/12/20 02:32:04;;;;;;;;;;;;;;;;;;1867267;29;7133;-62
2022/12/20 02:33:03;;;;;;;;;;;;;;;;;;1868379;28;7018;-62
2022/12/20 02:34:02;;;;;;;;;;;;;;;;;;1868108;29;7006;-61
2022/12/20 02:35:00;;;;;;;;;;;;;;;;;;1869366;28;7457;-62
2022/12/20 02:35:57;;;;;;;;;;;;;;;;;;1875412;28;7113;-63
2022/12/20 02:36:55;;;;;;;;;;;;;;;;;;1871464;28;7006;-61
2022/12/20 02:37:55;;;;;;;;;;;;;;;;;;1868171;29;7064;-62
2022/12/20 02:38:52;;;;;;;;;;;;;;;;;;1874838;28;7136;-62
2022/12/20 02:39:50;;;;;;;;;;;;;;;;;;1875734;28;8173;-64
2022/12/20 02:40:51;;;;;;;;;;;;;;;;;;1869125;28;8100;-62
2022/12/20 02:42:04;;;;;;;;;;;;;;;;;;1868632;28;7006;-61
2022/12/20 02:45:14;;;;;;;;;;;;;;;;;;1868323;29;7010;-62
2022/12/20 02:45:41;;;;;;;;;;;;;;;;;;1872093;28;7074;-61
2022/12/20 02:46:40;;;;;;;;;;;;;;;;;;1874978;28;7138;-62
2022/12/20 02:47:42;;;;;;;;;;;;;;;;;;1869600;28;7145;-63
2022/12/20 02:48:41;;;;;;;;;;;;;;;;;;1868588;28;7013;-62
2022/12/20 02:49:41;;;;;;;;;;;;;;;;;;1867980;29;7042;-63
2022/12/20 02:50:43;;;;;;;;;;;;;;;;;;1868858;28;7006;-62
2022/12/20 02:51:44;;;;;;;;;;;;;;;;;;1875585;28;7002;-62
2022/12/20 02:52:42;;;;;;;;;;;;;;;;;;1874413;28;7436;-64
2022/12/20 02:53:41;;;;;;;;;;;;;;;;;;1881517;28;7043;-63
2022/12/20 02:54:39;;;;;;;;;;;;;;;;;;1882080;28;7371;-61
2022/12/20 02:55:45;;;;;;;;;;;;;;;;;;1882296;28;7093;-63
2022/12/20 02:56:49;;;;;;;;;;;;;;;;;;1881619;28;8103;-63
2022/12/20 02:58:02;;;;;;;;;;;;;;;;;;1881599;28;7042;-63
2022/12/20 02:59:05;;;;;;;;;;;;;;;;;;1882118;28;7026;-62
2022/12/20 03:00:10;;;;;;;;;;;;;;;;;;1881805;28;7018;-63
2022/12/20 03:01:11;;;;;;;;;;;;;;;;;;1881519;28;7009;-61
2022/12/20 03:02:10;;;;;;;;;;;;;;;;;;1882983;28;7140;-63
2022/12/20 03:03:23;;;;;;;;;;;;;;;;;;1882816;28;7073;-64
2022/12/20 03:04:27;;;;;;;;;;;;;;;;;;1882787;28;7006;-62
2022/12/20 03:05:26;;;;;;;;;;;;;;;;;;1883198;28;7010;-63
2022/12/20 03:06:23;;;;;;;;;;;;;;;;;;1881304;28;7076;-63
2022/12/20 03:07:21;;;;;;;;;;;;;;;;;;1882486;28;7025;-64
2022/12/20 03:08:19;;;;;;;;;;;;;;;;;;1882610;28;7013;-60
2022/12/20 03:09:16;;;;;;;;;;;;;;;;;;1882315;28;7117;-61
2022/12/20 03:10:14;;;;;;;;;;;;;;;;;;1880953;28;8020;-62
2022/12/20 03:11:13;;;;;;;;;;;;;;;;;;1881297;28;7018;-61
2022/12/20 03:12:12;;;;;;;;;;;;;;;;;;1881560;28;8375;-62
2022/12/20 03:13:09;;;;;;;;;;;;;;;;;;1882604;28;7102;-63
2022/12/20 03:14:06;;;;;;;;;;;;;;;;;;1882466;28;7093;-62
2022/12/20 03:15:04;;;;;;;;;;;;;;;;;;1882247;28;7316;-63
2022/12/20 03:16:01;;;;;;;;;;;;;;;;;;1882031;28;7014;-62
2022/12/20 03:16:59;;;;;;;;;;;;;;;;;;1882583;28;7026;-61
2022/12/20 03:17:56;;;;;;;;;;;;;;;;;;1881925;28;7080;-62
2022/12/20 03:18:54;;;;;;;;;;;;;;;;;;1882515;28;7140;-63
2022/12/20 03:19:51;;;;;;;;;;;;;;;;;;1882147;28;7006;-62
2022/12/20 03:20:48;;;;;;;;;;;;;;;;;;1882564;28;7010;-61
2022/12/20 03:21:46;;;;;;;;;;;;;;;;;;1882757;28;8034;-62
2022/12/20 03:22:43;;;;;;;;;;;;;;;;;;1882857;28;7010;-62
2022/12/20 03:23:41;;;;;;;;;;;;;;;;;;1882777;28;7329;-62
2022/12/20 03:24:38;;;;;;;;;;;;;;;;;;1882203;28;8044;-62
2022/12/20 03:25:35;;;;;;;;;;;;;;;;;;1881846;28;7128;-62
2022/12/20 03:26:33;;;;;;;;;;;;;;;;;;1882231;28;7672;-63
2022/12/20 03:27:30;;;;;;;;;;;;;;;;;;1882818;28;7006;-61
2022/12/20 03:28:27;;;;;;;;;;;;;;;;;;1882205;28;7113;-64
2022/12/20 03:29:25;;;;;;;;;;;;;;;;;;1882231;28;7093;-64
2022/12/20 03:30:22;;;;;;;;;;;;;;;;;;1881989;28;7152;-61
2022/12/20 03:31:20;;;;;;;;;;;;;;;;;;1882204;28;7089;-63
2022/12/20 03:32:17;;;;;;;;;;;;;;;;;;1882605;28;7104;-62
2022/12/20 03:33:15;;;;;;;;;;;;;;;;;;1883061;28;7010;-62
2022/12/20 03:34:12;;;;;;;;;;;;;;;;;;1882373;28;7097;-62
2022/12/20 03:35:09;;;;;;;;;;;;;;;;;;1881184;28;7127;-62
2022/12/20 03:36:07;;;;;;;;;;;;;;;;;;1882207;28;7033;-62
2022/12/20 03:37:05;;;;;;;;;;;;;;;;;;1882218;28;7009;-63
2022/12/20 03:38:02;;;;;;;;;;;;;;;;;;1882548;28;7093;-63
2022/12/20 03:38:59;;;;;;;;;;;;;;;;;;1873139;28;7783;-61
2022/12/20 03:39:57;;;;;;;;;;;;;;;;;;1874544;28;7046;-63
2022/12/20 03:40:54;;;;;;;;;;;;;;;;;;1881026;28;7093;-62
2022/12/20 03:41:51;;;;;;;;;;;;;;;;;;1882300;28;7584;-62
2022/12/20 03:42:49;;;;;;;;;;;;;;;;;;1882173;28;7010;-61
2022/12/20 03:43:47;;;;;;;;;;;;;;;;;;1882111;28;7316;-62
2022/12/20 03:44:44;;;;;;;;;;;;;;;;;;1882266;28;7148;-61
2022/12/20 03:45:42;;;;;;;;;;;;;;;;;;1882787;28;8100;-63
2022/12/20 03:46:39;;;;;;;;;;;;;;;;;;1881628;28;7010;-63
2022/12/20 03:47:37;;;;;;;;;;;;;;;;;;1882311;28;7136;-64
2022/12/20 03:48:34;;;;;;;;;;;;;;;;;;1881822;28;7018;-61
2022/12/20 03:49:32;;;;;;;;;;;;;;;;;;1882071;28;7054;-61
2022/12/20 03:50:30;;;;;;;;;;;;;;;;;;1882244;28;7010;-63
2022/12/20 03:51:27;;;;;;;;;;;;;;;;;;1882201;28;7009;-63
2022/12/20 03:52:25;;;;;;;;;;;;;;;;;;1882598;28;7090;-63
2022/12/20 03:53:22;;;;;;;;;;;;;;;;;;1881302;28;7043;-63
2022/12/20 03:54:19;;;;;;;;;;;;;;;;;;1881939;28;7121;-62
2022/12/20 03:55:17;;;;;;;;;;;;;;;;;;1881961;28;7088;-62
2022/12/20 03:56:14;;;;;;;;;;;;;;;;;;1882354;28;7077;-61
2022/12/20 03:57:12;;;;;;;;;;;;;;;;;;1882479;28;7113;-63
2022/12/20 03:58:09;;;;;;;;;;;;;;;;;;1882724;28;7006;-64
2022/12/20 03:59:06;;;;;;;;;;;;;;;;;;1880758;28;7116;-63
2022/12/20 04:00:05;;;;;;;;;;;;;;;;;;1882067;28;7039;-62
2022/12/20 04:01:14;;;;;;;;;;;;;;;;;;1881965;28;7010;-63
2022/12/20 04:02:12;;;;;;;;;;;;;;;;;;1882140;28;8052;-64
2022/12/20 04:03:09;;;;;;;;;;;;;;;;;;1880559;28;7093;-62
2022/12/20 04:04:10;;;;;;;;;;;;;;;;;;1882071;28;7031;-63
2022/12/20 04:05:07;;;;;;;;;;;;;;;;;;1882038;28;7006;-64
2022/12/20 04:06:05;;;;;;;;;;;;;;;;;;1874032;29;7133;-64
2022/12/20 04:07:02;;;;;;;;;;;;;;;;;;1874107;29;7010;-63
2022/12/20 04:08:00;;;;;;;;;;;;;;;;;;1881597;28;7042;-61
2022/12/20 04:08:58;;;;;;;;;;;;;;;;;;1882623;28;8059;-64
2022/12/20 04:09:55;;;;;;;;;;;;;;;;;;1882015;28;7010;-63
2022/12/20 04:12:08;;;;;;;;;;;;;;;;;;1881612;28;9211;-61
2022/12/20 04:13:06;;;;;;;;;;;;;;;;;;1882922;28;7096;-64
2022/12/20 04:14:03;;;;;;;;;;;;;;;;;;1881953;28;8104;-64
2022/12/20 04:15:02;;;;;;;;;;;;;;;;;;1874357;29;7117;-63
2022/12/20 04:16:00;;;;;;;;;;;;;;;;;;1874056;29;7085;-63
2022/12/20 04:16:57;;;;;;;;;;;;;;;;;;1881114;28;7309;-63
2022/12/20 04:17:55;;;;;;;;;;;;;;;;;;1882589;28;7308;-64
2022/12/20 04:18:52;;;;;;;;;;;;;;;;;;1882354;28;7006;-63
2022/12/20 04:19:50;;;;;;;;;;;;;;;;;;1881703;28;7010;-63
2022/12/20 04:20:51;;;;;;;;;;;;;;;;;;1881753;28;8110;-64
2022/12/20 04:21:48;;;;;;;;;;;;;;;;;;1881099;28;7141;-63
2022/12/20 04:22:49;;;;;;;;;;;;;;;;;;1881855;28;7006;-63
2022/12/20 04:23:47;;;;;;;;;;;;;;;;;;1882448;28;7105;-63
2022/12/20 04:24:44;;;;;;;;;;;;;;;;;;1882410;28;7029;-61
2022/12/20 04:25:41;;;;;;;;;;;;;;;;;;1882579;28;7042;-63
2022/12/20 04:26:39;;;;;;;;;;;;;;;;;;1881926;28;7010;-62
2022/12/20 04:27:36;;;;;;;;;;;;;;;;;;1882227;28;7105;-63
2022/12/20 04:28:34;;;;;;;;;;;;;;;;;;1872771;29;7074;-64
2022/12/20 04:29:31;;;;;;;;;;;;;;;;;;1874368;29;7006;-63
2022/12/20 04:30:29;;;;;;;;;;;;;;;;;;1881156;28;7006;-62
2022/12/20 04:31:26;;;;;;;;;;;;;;;;;;1882361;28;8052;-63
2022/12/20 04:32:24;;;;;;;;;;;;;;;;;;1882635;28;7010;-64
2022/12/20 04:33:22;;;;;;;;;;;;;;;;;;1881739;28;7009;-62
2022/12/20 04:34:19;;;;;;;;;;;;;;;;;;1882046;28;7132;-61
2022/12/20 04:35:17;;;;;;;;;;;;;;;;;;1882402;28;7046;-63
2022/12/20 04:36:15;;;;;;;;;;;;;;;;;;1881977;28;7105;-63
2022/12/20 04:37:12;;;;;;;;;;;;;;;;;;1880945;28;7014;-64
2022/12/20 04:38:09;;;;;;;;;;;;;;;;;;1882123;28;7093;-64
2022/12/20 04:39:07;;;;;;;;;;;;;;;;;;1882069;28;7042;-61
2022/12/20 04:40:05;;;;;;;;;;;;;;;;;;1882069;28;7002;-64
2022/12/20 04:41:02;;;;;;;;;;;;;;;;;;1881697;28;8016;-62
2022/12/20 04:41:59;;;;;;;;;;;;;;;;;;1881846;28;7017;-61
2022/12/20 04:42:57;;;;;;;;;;;;;;;;;;1881762;28;7063;-61
2022/12/20 04:43:56;;;;;;;;;;;;;;;;;;1873916;29;7335;-62
2022/12/20 04:44:53;;;;;;;;;;;;;;;;;;1874727;29;7005;-63
2022/12/20 04:45:55;;;;;;;;;;;;;;;;;;1881265;28;7939;-63
2022/12/20 04:46:52;;;;;;;;;;;;;;;;;;1882475;28;7410;-63
2022/12/20 04:47:49;;;;;;;;;;;;;;;;;;1881841;28;7124;-63
2022/12/20 04:48:47;;;;;;;;;;;;;;;;;;1882832;28;8859;-62
2022/12/20 04:49:55;;;;;;;;;;;;;;;;;;1881022;28;8077;-62
2022/12/20 04:50:53;;;;;;;;;;;;;;;;;;1881807;28;7093;-63
2022/12/20 04:51:51;;;;;;;;;;;;;;;;;;1874153;29;8096;-64
2022/12/20 04:54:04;;;;;;;;;;;;;;;;;;1881165;28;7092;-62
2022/12/20 04:55:02;;;;;;;;;;;;;;;;;;1881903;28;7325;-62
2022/12/20 04:56:00;;;;;;;;;;;;;;;;;;1882318;28;7092;-62
2022/12/20 04:56:57;;;;;;;;;;;;;;;;;;1882278;28;7014;-64
2022/12/20 04:57:54;;;;;;;;;;;;;;;;;;1881658;28;7039;-61
2022/12/20 04:58:57;;;;;;;;;;;;;;;;;;1881810;28;7002;-64
2022/12/20 04:59:55;;;;;;;;;;;;;;;;;;1882203;28;7129;-64
2022/12/20 05:00:52;;;;;;;;;;;;;;;;;;1882482;28;7030;-62
2022/12/20 05:01:50;;;;;;;;;;;;;;;;;;1881683;28;7042;-62
2022/12/20 05:02:47;;;;;;;;;;;;;;;;;;1881964;28;7009;-63
2022/12/20 05:03:46;;;;;;;;;;;;;;;;;;1882348;28;7018;-63
2022/12/20 05:04:43;;;;;;;;;;;;;;;;;;1881654;28;8023;-64
2022/12/20 05:05:41;;;;;;;;;;;;;;;;;;1882084;28;7189;-64
2022/12/20 05:06:38;;;;;;;;;;;;;;;;;;1881943;28;7010;-63
2022/12/20 05:07:36;;;;;;;;;;;;;;;;;;1881931;28;7022;-63
2022/12/20 05:08:33;;;;;;;;;;;;;;;;;;1881211;28;7152;-64
2022/12/20 05:09:31;;;;;;;;;;;;;;;;;;1880889;28;7014;-61
2022/12/20 05:10:28;;;;;;;;;;;;;;;;;;1882173;28;7392;-64
2022/12/20 05:11:25;;;;;;;;;;;;;;;;;;1881538;28;7005;-63
2022/12/20 05:12:23;;;;;;;;;;;;;;;;;;1881539;28;7340;-63
2022/12/20 05:13:20;;;;;;;;;;;;;;;;;;1882002;28;7381;-63
2022/12/20 05:14:18;;;;;;;;;;;;;;;;;;1881277;28;7010;-63
2022/12/20 05:15:15;;;;;;;;;;;;;;;;;;1881816;28;7097;-63
2022/12/20 05:16:12;;;;;;;;;;;;;;;;;;1881883;28;7010;-62
2022/12/20 05:17:10;;;;;;;;;;;;;;;;;;1881938;28;8088;-63
2022/12/20 05:18:08;;;;;;;;;;;;;;;;;;1881665;28;7035;-63
2022/12/20 05:19:06;;;;;;;;;;;;;;;;;;1881794;28;7009;-64
2022/12/20 05:20:04;;;;;;;;;;;;;;;;;;1880711;28;7181;-64
2022/12/20 05:26:16;;;;;;;;;;;;;;;;;;1883262;28;8035;-62
2022/12/20 05:27:14;;;;;;;;;;;;;;;;;;1882618;28;7006;-62
2022/12/20 05:28:11;;;;;;;;;;;;;;;;;;1883197;28;7097;-62
2022/12/20 05:29:08;;;;;;;;;;;;;;;;;;1883347;28;7065;-60
2022/12/20 05:30:06;;;;;;;;;;;;;;;;;;1883277;28;7117;-63
2022/12/20 05:31:04;;;;;;;;;;;;;;;;;;1875276;28;7029;-61
2022/12/20 05:32:01;;;;;;;;;;;;;;;;;;1875148;28;7107;-62
2022/12/20 05:32:59;;;;;;;;;;;;;;;;;;1882182;28;7097;-63
2022/12/20 05:33:56;;;;;;;;;;;;;;;;;;1883447;28;7387;-62
2022/12/20 05:34:53;;;;;;;;;;;;;;;;;;1883109;28;7143;-62
2022/12/20 05:35:51;;;;;;;;;;;;;;;;;;1882727;28;7135;-64
2022/12/20 05:36:49;;;;;;;;;;;;;;;;;;1883172;28;7216;-62
2022/12/20 05:37:46;;;;;;;;;;;;;;;;;;1882109;28;7002;-62
2022/12/20 05:38:43;;;;;;;;;;;;;;;;;;1883366;28;7006;-64
2022/12/20 05:39:41;;;;;;;;;;;;;;;;;;1883101;28;7093;-62
2022/12/20 05:40:40;;;;;;;;;;;;;;;;;;1883552;28;7054;-61
2022/12/20 05:41:39;;;;;;;;;;;;;;;;;;1883160;28;7006;-64
2022/12/20 05:42:37;;;;;;;;;;;;;;;;;;1883771;28;7135;-63
2022/12/20 05:43:34;;;;;;;;;;;;;;;;;;1881849;28;7030;-62
2022/12/20 05:44:31;;;;;;;;;;;;;;;;;;1883775;28;7113;-62
2022/12/20 05:45:29;;;;;;;;;;;;;;;;;;1883558;28;8085;-62
2022/12/20 05:46:26;;;;;;;;;;;;;;;;;;1883482;28;7202;-63
2022/12/20 05:47:24;;;;;;;;;;;;;;;;;;1875593;28;7002;-63
2022/12/20 05:48:21;;;;;;;;;;;;;;;;;;1867177;29;7026;-64
2022/12/20 05:49:18;;;;;;;;;;;;;;;;;;1874679;28;7006;-63
2022/12/20 05:50:16;;;;;;;;;;;;;;;;;;1881736;28;7113;-62
2022/12/20 05:51:15;;;;;;;;;;;;;;;;;;1883579;28;7010;-63
2022/12/20 05:52:12;;;;;;;;;;;;;;;;;;1874847;28;7010;-62
2022/12/20 05:53:11;;;;;;;;;;;;;;;;;;1875018;28;7010;-64
2022/12/20 05:54:08;;;;;;;;;;;;;;;;;;1882636;28;7284;-62
2022/12/20 05:55:05;;;;;;;;;;;;;;;;;;1883598;28;7009;-63
2022/12/20 05:56:03;;;;;;;;;;;;;;;;;;1883124;28;7301;-62
2022/12/20 05:57:00;;;;;;;;;;;;;;;;;;1882230;28;7014;-62
2022/12/20 05:57:58;;;;;;;;;;;;;;;;;;1883268;28;7097;-64
2022/12/20 05:58:56;;;;;;;;;;;;;;;;;;1883701;28;7265;-62
2022/12/20 05:59:53;;;;;;;;;;;;;;;;;;1883699;28;8187;-62
2022/12/20 06:00:51;;;;;;;;;;;;;;;;;;1875185;28;7014;-64
2022/12/20 06:01:48;;;;;;;;;;;;;;;;;;1875915;28;7010;-64
2022/12/20 06:02:46;;;;;;;;;;;;;;;;;;1882640;28;7096;-62
2022/12/20 06:03:44;;;;;;;;;;;;;;;;;;1883289;28;7281;-63
2022/12/20 06:04:42;;;;;;;;;;;;;;;;;;1883359;28;7363;-61
2022/12/20 06:05:40;;;;;;;;;;;;;;;;;;1883084;28;7010;-62
2022/12/20 06:06:37;;;;;;;;;;;;;;;;;;1883218;28;7046;-63
2022/12/20 06:07:35;;;;;;;;;;;;;;;;;;1883276;28;7010;-63
2022/12/20 06:08:32;;;;;;;;;;;;;;;;;;1883705;28;7010;-64
2022/12/20 06:09:30;;;;;;;;;;;;;;;;;;1883495;28;7058;-63
2022/12/20 06:10:28;;;;;;;;;;;;;;;;;;1875187;28;7014;-63
2022/12/20 06:11:25;;;;;;;;;;;;;;;;;;1874078;28;7057;-63
2022/12/20 06:12:26;;;;;;;;;;;;;;;;;;1883017;28;7010;-63
2022/12/20 06:13:24;;;;;;;;;;;;;;;;;;1883322;28;7022;-62
2022/12/20 06:14:21;;;;;;;;;;;;;;;;;;1883200;28;7587;-62
2022/12/20 06:15:19;;;;;;;;;;;;;;;;;;1883471;28;8047;-63
2022/12/20 06:16:19;;;;;;;;;;;;;;;;;;1883363;28;7128;-64
2022/12/20 06:17:17;;;;;;;;;;;;;;;;;;1882991;28;8007;-63
2022/12/20 06:18:14;;;;;;;;;;;;;;;;;;1882997;28;7141;-64
2022/12/20 06:19:13;;;;;;;;;;;;;;;;;;1883036;28;7010;-64
2022/12/20 06:20:17;;;;;;;;;;;;;;;;;;1875440;28;7812;-63
2022/12/20 06:21:15;;;;;;;;;;;;;;;;;;1874970;28;8032;-64
2022/12/20 06:22:12;;;;;;;;;;;;;;;;;;1881715;28;7134;-64
2022/12/20 06:23:10;;;;;;;;;;;;;;;;;;1882881;28;7097;-63
2022/12/20 06:24:07;;;;;;;;;;;;;;;;;;1883252;28;7017;-62
2022/12/20 06:25:05;;;;;;;;;;;;;;;;;;1883111;28;7014;-62
2022/12/20 06:26:03;;;;;;;;;;;;;;;;;;1882663;28;8032;-63
2022/12/20 06:27:01;;;;;;;;;;;;;;;;;;1883079;28;7156;-64
2022/12/20 06:27:59;;;;;;;;;;;;;;;;;;1882848;28;8033;-63
2022/12/20 06:29:00;;;;;;;;;;;;;;;;;;1882979;28;7006;-63
2022/12/20 06:29:58;;;;;;;;;;;;;;;;;;1882387;28;7054;-63
2022/12/20 06:30:57;;;;;;;;;;;;;;;;;;1883100;28;7136;-64
2022/12/20 06:31:54;;;;;;;;;;;;;;;;;;1883286;28;7010;-63
2022/12/20 06:32:51;;;;;;;;;;;;;;;;;;1875335;28;7988;-64
2022/12/20 06:33:49;;;;;;;;;;;;;;;;;;1874870;28;7054;-64
2022/12/20 06:34:46;;;;;;;;;;;;;;;;;;1881560;28;7113;-63
2022/12/20 06:35:44;;;;;;;;;;;;;;;;;;1882708;28;7010;-62
2022/12/20 06:36:41;;;;;;;;;;;;;;;;;;1883125;28;7293;-62
2022/12/20 06:37:39;;;;;;;;;;;;;;;;;;1882782;28;7429;-62
2022/12/20 06:38:36;;;;;;;;;;;;;;;;;;1882716;28;7149;-62
2022/12/20 06:39:34;;;;;;;;;;;;;;;;;;1883176;28;7005;-63
2022/12/20 06:40:31;;;;;;;;;;;;;;;;;;1882714;28;7121;-61
2022/12/20 06:41:28;;;;;;;;;;;;;;;;;;1882743;28;7109;-64
2022/12/20 06:42:26;;;;;;;;;;;;;;;;;;1882928;28;7046;-63
2022/12/20 06:43:23;;;;;;;;;;;;;;;;;;1883289;28;7006;-62
2022/12/20 06:44:21;;;;;;;;;;;;;;;;;;1882098;28;7010;-63
2022/12/20 06:45:18;;;;;;;;;;;;;;;;;;1883176;28;7620;-64
2022/12/20 06:46:15;;;;;;;;;;;;;;;;;;1882195;28;7013;-63
2022/12/20 06:47:13;;;;;;;;;;;;;;;;;;1883389;28;8040;-63
2022/12/20 06:48:11;;;;;;;;;;;;;;;;;;1882639;28;7340;-62
2022/12/20 06:49:09;;;;;;;;;;;;;;;;;;1882971;28;7195;-61
2022/12/20 06:50:07;;;;;;;;;;;;;;;;;;1882887;28;7038;-62
2022/12/20 06:51:04;;;;;;;;;;;;;;;;;;1881803;28;7022;-61
2022/12/20 06:52:02;;;;;;;;;;;;;;;;;;1883660;28;7030;-63
2022/12/20 06:52:59;;;;;;;;;;;;;;;;;;1882745;28;7014;-63
2022/12/20 06:53:57;;;;;;;;;;;;;;;;;;1882973;28;7010;-62
2022/12/20 06:54:54;;;;;;;;;;;;;;;;;;1882562;28;7013;-62
2022/12/20 06:55:52;;;;;;;;;;;;;;;;;;1882663;28;7010;-63
2022/12/20 06:56:49;;;;;;;;;;;;;;;;;;1882914;28;8025;-62
2022/12/20 06:57:46;;;;;;;;;;;;;;;;;;1883149;28;7010;-62